sensor_id;sensor_type;location;lat;lon;timestamp;P1;durP1;ratioP1;P2;durP2;ratioP2
7901;SDS011;3996;49.674;10.716;2022-12-18T00:02:14;43.80;;;20.00;;
7901;SDS011;3996;49.674;10.716;2022-12-18T00:04:40;37.27;;;17.30;;
7901;SDS011;3996;49.674;10.716;2022-12-18T00:07:05;45.80;;;18.27;;
7901;SDS011;3996;49.674;10.716;2022-12-18T00:09:31;43.27;;;18.27;;
7901;SDS011;3996;49.674;10.716;2022-12-18T00:11:57;32.50;;;16.67;;
7901;SDS011;3996;49.674;10.716;2022-12-18T00:14:22;38.47;;;16.93;;
7901;SDS011;3996;49.674;10.716;2022-12-18T00:16:48;33.83;;;15.27;;
7901;SDS011;3996;49.674;10.716;2022-12-18T00:19:13;36.67;;;16.07;;
7901;SDS011;3996;49.674;10.716;2022-12-18T00:21:39;34.93;;;17.37;;
7901;SDS011;3996;49.674;10.716;2022-12-18T00:24:06;34.30;;;17.23;;
7901;SDS011;3996;49.674;10.716;2022-12-18T00:26:33;36.37;;;18.10;;
7901;SDS011;3996;49.674;10.716;2022-12-18T00:29:00;37.50;;;16.70;;
7901;SDS011;3996;49.674;10.716;2022-12-18T00:31:28;30.97;;;17.37;;
7901;SDS011;3996;49.674;10.716;2022-12-18T00:33:54;36.00;;;17.37;;
7901;SDS011;3996;49.674;10.716;2022-12-18T00:36:23;32.93;;;17.37;;
7901;SDS011;3996;49.674;10.716;2022-12-18T00:38:54;34.17;;;17.30;;
7901;SDS011;3996;49.674;10.716;2022-12-18T00:41:20;36.47;;;17.10;;
7901;SDS011;3996;49.674;10.716;2022-12-18T00:44:05;33.57;;;16.30;;
7901;SDS011;3996;49.674;10.716;2022-12-18T00:46:32;37.30;;;17.93;;
7901;SDS011;3996;49.674;10.716;2022-12-18T00:48:58;36.23;;;18.03;;
7901;SDS011;3996;49.674;10.716;2022-12-18T00:51:23;32.10;;;17.00;;
7901;SDS011;3996;49.674;10.716;2022-12-18T00:53:49;33.93;;;16.30;;
7901;SDS011;3996;49.674;10.716;2022-12-18T00:56:15;40.70;;;18.87;;
7901;SDS011;3996;49.674;10.716;2022-12-18T00:58:40;36.13;;;18.43;;
7901;SDS011;3996;49.674;10.716;2022-12-18T01:01:06;32.50;;;16.93;;
7901;SDS011;3996;49.674;10.716;2022-12-18T01:03:33;36.33;;;17.10;;
7901;SDS011;3996;49.674;10.716;2022-12-18T01:05:59;34.20;;;17.67;;
7901;SDS011;3996;49.674;10.716;2022-12-18T01:08:24;32.53;;;17.13;;
7901;SDS011;3996;49.674;10.716;2022-12-18T01:10:50;35.87;;;17.87;;
7901;SDS011;3996;49.674;10.716;2022-12-18T01:13:16;37.60;;;18.03;;
7901;SDS011;3996;49.674;10.716;2022-12-18T01:15:47;32.10;;;18.10;;
7901;SDS011;3996;49.674;10.716;2022-12-18T01:18:14;39.17;;;17.20;;
7901;SDS011;3996;49.674;10.716;2022-12-18T01:20:39;40.50;;;19.17;;
7901;SDS011;3996;49.674;10.716;2022-12-18T01:23:05;38.50;;;18.73;;
7901;SDS011;3996;49.674;10.716;2022-12-18T01:25:31;43.37;;;19.47;;
7901;SDS011;3996;49.674;10.716;2022-12-18T01:27:56;34.83;;;18.43;;
7901;SDS011;3996;49.674;10.716;2022-12-18T01:30:22;44.07;;;20.07;;
7901;SDS011;3996;49.674;10.716;2022-12-18T01:32:48;41.90;;;19.67;;
7901;SDS011;3996;49.674;10.716;2022-12-18T01:35:13;40.47;;;19.47;;
7901;SDS011;3996;49.674;10.716;2022-12-18T01:37:39;41.33;;;19.47;;
7901;SDS011;3996;49.674;10.716;2022-12-18T01:40:05;39.43;;;17.80;;
7901;SDS011;3996;49.674;10.716;2022-12-18T01:42:31;38.03;;;18.43;;
7901;SDS011;3996;49.674;10.716;2022-12-18T01:45:21;35.00;;;18.37;;
7901;SDS011;3996;49.674;10.716;2022-12-18T01:50:46;40.07;;;19.43;;
7901;SDS011;3996;49.674;10.716;2022-12-18T01:53:19;36.37;;;19.00;;
7901;SDS011;3996;49.674;10.716;2022-12-18T01:55:55;37.33;;;18.70;;
7901;SDS011;3996;49.674;10.716;2022-12-18T01:58:23;36.83;;;19.73;;
7901;SDS011;3996;49.674;10.716;2022-12-18T02:01:09;35.67;;;19.10;;
7901;SDS011;3996;49.674;10.716;2022-12-18T02:03:34;42.27;;;20.07;;
7901;SDS011;3996;49.674;10.716;2022-12-18T02:08:48;34.80;;;19.10;;
7901;SDS011;3996;49.674;10.716;2022-12-18T02:11:30;37.60;;;18.50;;
7901;SDS011;3996;49.674;10.716;2022-12-18T02:16:42;35.03;;;18.10;;
7901;SDS011;3996;49.674;10.716;2022-12-18T02:19:25;33.97;;;16.37;;
7901;SDS011;3996;49.674;10.716;2022-12-18T02:24:34;33.97;;;17.20;;
7901;SDS011;3996;49.674;10.716;2022-12-18T02:27:10;33.07;;;17.40;;
7901;SDS011;3996;49.674;10.716;2022-12-18T02:29:39;32.27;;;17.57;;
7901;SDS011;3996;49.674;10.716;2022-12-18T02:32:11;38.93;;;18.17;;
7901;SDS011;3996;49.674;10.716;2022-12-18T02:34:40;40.43;;;17.83;;
7901;SDS011;3996;49.674;10.716;2022-12-18T02:37:09;38.03;;;18.17;;
7901;SDS011;3996;49.674;10.716;2022-12-18T02:39:38;47.10;;;20.27;;
7901;SDS011;3996;49.674;10.716;2022-12-18T02:42:06;62.83;;;22.43;;
7901;SDS011;3996;49.674;10.716;2022-12-18T02:44:41;50.17;;;21.93;;
7901;SDS011;3996;49.674;10.716;2022-12-18T02:47:12;48.87;;;21.33;;
7901;SDS011;3996;49.674;10.716;2022-12-18T02:55:28;43.20;;;18.90;;
7901;SDS011;3996;49.674;10.716;2022-12-18T03:00:51;41.53;;;20.43;;
7901;SDS011;3996;49.674;10.716;2022-12-18T03:03:33;39.73;;;19.77;;
7901;SDS011;3996;49.674;10.716;2022-12-18T03:06:12;47.70;;;19.23;;
7901;SDS011;3996;49.674;10.716;2022-12-18T03:08:58;37.43;;;18.17;;
7901;SDS011;3996;49.674;10.716;2022-12-18T03:11:28;43.67;;;18.80;;
7901;SDS011;3996;49.674;10.716;2022-12-18T03:14:15;36.33;;;18.17;;
7901;SDS011;3996;49.674;10.716;2022-12-18T03:16:44;38.33;;;18.13;;
7901;SDS011;3996;49.674;10.716;2022-12-18T03:19:17;42.93;;;18.10;;
7901;SDS011;3996;49.674;10.716;2022-12-18T03:21:47;41.60;;;19.20;;
7901;SDS011;3996;49.674;10.716;2022-12-18T03:24:23;39.67;;;18.07;;
7901;SDS011;3996;49.674;10.716;2022-12-18T03:26:52;38.77;;;18.43;;
7901;SDS011;3996;49.674;10.716;2022-12-18T03:29:21;40.67;;;18.87;;
7901;SDS011;3996;49.674;10.716;2022-12-18T03:31:54;42.67;;;18.80;;
7901;SDS011;3996;49.674;10.716;2022-12-18T03:34:32;35.83;;;17.37;;
7901;SDS011;3996;49.674;10.716;2022-12-18T03:37:00;35.17;;;17.67;;
7901;SDS011;3996;49.674;10.716;2022-12-18T03:39:26;37.53;;;17.27;;
7901;SDS011;3996;49.674;10.716;2022-12-18T03:41:57;44.20;;;18.80;;
7901;SDS011;3996;49.674;10.716;2022-12-18T03:44:54;35.20;;;16.17;;
7901;SDS011;3996;49.674;10.716;2022-12-18T03:53:46;35.53;;;17.77;;
7901;SDS011;3996;49.674;10.716;2022-12-18T03:55:50;35.77;;;17.63;;
7901;SDS011;3996;49.674;10.716;2022-12-18T03:58:18;38.70;;;17.00;;
7901;SDS011;3996;49.674;10.716;2022-12-18T04:00:48;36.10;;;17.10;;
7901;SDS011;3996;49.674;10.716;2022-12-18T04:03:17;36.47;;;16.40;;
7901;SDS011;3996;49.674;10.716;2022-12-18T04:05:44;38.13;;;16.87;;
7901;SDS011;3996;49.674;10.716;2022-12-18T04:08:11;32.30;;;17.00;;
7901;SDS011;3996;49.674;10.716;2022-12-18T04:10:38;38.43;;;17.77;;
7901;SDS011;3996;49.674;10.716;2022-12-18T04:13:03;37.40;;;17.53;;
7901;SDS011;3996;49.674;10.716;2022-12-18T04:15:29;38.33;;;16.97;;
7901;SDS011;3996;49.674;10.716;2022-12-18T04:17:59;37.97;;;16.40;;
7901;SDS011;3996;49.674;10.716;2022-12-18T04:20:24;41.90;;;18.00;;
7901;SDS011;3996;49.674;10.716;2022-12-18T04:22:51;41.03;;;18.43;;
7901;SDS011;3996;49.674;10.716;2022-12-18T04:25:16;45.90;;;19.23;;
7901;SDS011;3996;49.674;10.716;2022-12-18T04:27:42;44.50;;;19.27;;
7901;SDS011;3996;49.674;10.716;2022-12-18T04:30:08;42.97;;;19.43;;
7901;SDS011;3996;49.674;10.716;2022-12-18T04:32:34;43.10;;;19.70;;
7901;SDS011;3996;49.674;10.716;2022-12-18T04:35:00;43.40;;;19.43;;
7901;SDS011;3996;49.674;10.716;2022-12-18T04:37:26;40.10;;;19.57;;
7901;SDS011;3996;49.674;10.716;2022-12-18T04:39:51;45.97;;;19.47;;
7901;SDS011;3996;49.674;10.716;2022-12-18T04:42:17;44.13;;;20.13;;
7901;SDS011;3996;49.674;10.716;2022-12-18T04:44:42;48.83;;;20.30;;
7901;SDS011;3996;49.674;10.716;2022-12-18T04:47:08;44.23;;;18.93;;
7901;SDS011;3996;49.674;10.716;2022-12-18T04:49:33;46.37;;;19.57;;
7901;SDS011;3996;49.674;10.716;2022-12-18T04:51:59;48.50;;;19.93;;
7901;SDS011;3996;49.674;10.716;2022-12-18T04:54:24;41.43;;;17.73;;
7901;SDS011;3996;49.674;10.716;2022-12-18T04:56:50;44.90;;;19.90;;
7901;SDS011;3996;49.674;10.716;2022-12-18T04:59:16;51.00;;;21.37;;
7901;SDS011;3996;49.674;10.716;2022-12-18T05:01:41;51.13;;;19.90;;
7901;SDS011;3996;49.674;10.716;2022-12-18T05:04:07;47.13;;;20.27;;
7901;SDS011;3996;49.674;10.716;2022-12-18T05:06:32;51.33;;;18.77;;
7901;SDS011;3996;49.674;10.716;2022-12-18T05:08:58;50.33;;;19.80;;
7901;SDS011;3996;49.674;10.716;2022-12-18T05:11:24;50.23;;;21.10;;
7901;SDS011;3996;49.674;10.716;2022-12-18T05:13:49;57.67;;;22.73;;
7901;SDS011;3996;49.674;10.716;2022-12-18T05:16:15;52.23;;;21.97;;
7901;SDS011;3996;49.674;10.716;2022-12-18T05:18:40;50.27;;;22.10;;
7901;SDS011;3996;49.674;10.716;2022-12-18T05:21:06;52.50;;;21.83;;
7901;SDS011;3996;49.674;10.716;2022-12-18T05:23:35;48.53;;;21.00;;
7901;SDS011;3996;49.674;10.716;2022-12-18T05:26:02;56.37;;;21.50;;
7901;SDS011;3996;49.674;10.716;2022-12-18T05:28:30;53.80;;;20.40;;
7901;SDS011;3996;49.674;10.716;2022-12-18T05:30:57;48.40;;;20.37;;
7901;SDS011;3996;49.674;10.716;2022-12-18T05:33:25;58.43;;;22.60;;
7901;SDS011;3996;49.674;10.716;2022-12-18T05:35:57;54.37;;;21.90;;
7901;SDS011;3996;49.674;10.716;2022-12-18T05:38:27;56.70;;;22.70;;
7901;SDS011;3996;49.674;10.716;2022-12-18T05:40:54;47.90;;;19.93;;
7901;SDS011;3996;49.674;10.716;2022-12-18T05:43:20;51.93;;;22.17;;
7901;SDS011;3996;49.674;10.716;2022-12-18T05:45:47;47.77;;;20.47;;
7901;SDS011;3996;49.674;10.716;2022-12-18T05:48:13;45.83;;;19.87;;
7901;SDS011;3996;49.674;10.716;2022-12-18T05:50:40;46.27;;;20.10;;
7901;SDS011;3996;49.674;10.716;2022-12-18T05:53:07;47.27;;;21.37;;
7901;SDS011;3996;49.674;10.716;2022-12-18T05:55:33;40.67;;;18.80;;
7901;SDS011;3996;49.674;10.716;2022-12-18T05:58:00;44.53;;;19.10;;
7901;SDS011;3996;49.674;10.716;2022-12-18T06:00:26;46.17;;;19.30;;
7901;SDS011;3996;49.674;10.716;2022-12-18T06:02:52;44.73;;;20.57;;
7901;SDS011;3996;49.674;10.716;2022-12-18T06:05:17;41.50;;;18.73;;
7901;SDS011;3996;49.674;10.716;2022-12-18T06:07:43;41.30;;;17.83;;
7901;SDS011;3996;49.674;10.716;2022-12-18T06:10:08;43.87;;;18.47;;
7901;SDS011;3996;49.674;10.716;2022-12-18T06:12:34;47.37;;;17.83;;
7901;SDS011;3996;49.674;10.716;2022-12-18T06:15:00;44.27;;;19.73;;
7901;SDS011;3996;49.674;10.716;2022-12-18T06:17:29;43.37;;;18.73;;
7901;SDS011;3996;49.674;10.716;2022-12-18T06:19:55;41.57;;;19.80;;
7901;SDS011;3996;49.674;10.716;2022-12-18T06:22:21;43.80;;;19.30;;
7901;SDS011;3996;49.674;10.716;2022-12-18T06:24:47;46.07;;;18.67;;
7901;SDS011;3996;49.674;10.716;2022-12-18T06:27:12;43.50;;;17.60;;
7901;SDS011;3996;49.674;10.716;2022-12-18T06:29:38;38.30;;;17.50;;
7901;SDS011;3996;49.674;10.716;2022-12-18T06:32:04;38.73;;;17.17;;
7901;SDS011;3996;49.674;10.716;2022-12-18T06:34:30;32.57;;;16.03;;
7901;SDS011;3996;49.674;10.716;2022-12-18T06:36:55;40.60;;;17.83;;
7901;SDS011;3996;49.674;10.716;2022-12-18T06:39:21;35.67;;;16.23;;
7901;SDS011;3996;49.674;10.716;2022-12-18T06:41:46;37.43;;;17.33;;
7901;SDS011;3996;49.674;10.716;2022-12-18T06:44:12;39.03;;;17.10;;
7901;SDS011;3996;49.674;10.716;2022-12-18T06:46:37;39.17;;;16.97;;
7901;SDS011;3996;49.674;10.716;2022-12-18T06:49:03;36.83;;;16.67;;
7901;SDS011;3996;49.674;10.716;2022-12-18T06:51:28;38.07;;;16.80;;
7901;SDS011;3996;49.674;10.716;2022-12-18T06:53:54;34.97;;;15.37;;
7901;SDS011;3996;49.674;10.716;2022-12-18T06:56:20;38.07;;;17.80;;
7901;SDS011;3996;49.674;10.716;2022-12-18T06:58:46;38.07;;;17.93;;
7901;SDS011;3996;49.674;10.716;2022-12-18T07:01:11;38.00;;;17.63;;
7901;SDS011;3996;49.674;10.716;2022-12-18T07:03:39;36.23;;;16.20;;
7901;SDS011;3996;49.674;10.716;2022-12-18T07:06:12;35.93;;;15.63;;
7901;SDS011;3996;49.674;10.716;2022-12-18T07:08:40;36.90;;;16.57;;
7901;SDS011;3996;49.674;10.716;2022-12-18T07:11:05;34.43;;;15.83;;
7901;SDS011;3996;49.674;10.716;2022-12-18T07:13:31;34.97;;;16.33;;
7901;SDS011;3996;49.674;10.716;2022-12-18T07:16:07;39.10;;;15.43;;
7901;SDS011;3996;49.674;10.716;2022-12-18T07:18:34;33.00;;;15.57;;
7901;SDS011;3996;49.674;10.716;2022-12-18T07:21:03;33.30;;;15.13;;
7901;SDS011;3996;49.674;10.716;2022-12-18T07:23:31;32.53;;;14.07;;
7901;SDS011;3996;49.674;10.716;2022-12-18T07:26:05;30.17;;;14.90;;
7901;SDS011;3996;49.674;10.716;2022-12-18T07:28:33;37.03;;;14.83;;
7901;SDS011;3996;49.674;10.716;2022-12-18T07:31:06;33.20;;;15.20;;
7901;SDS011;3996;49.674;10.716;2022-12-18T07:33:36;34.67;;;16.40;;
7901;SDS011;3996;49.674;10.716;2022-12-18T07:36:03;33.70;;;16.63;;
7901;SDS011;3996;49.674;10.716;2022-12-18T07:38:30;38.43;;;15.93;;
7901;SDS011;3996;49.674;10.716;2022-12-18T07:41:00;31.70;;;15.27;;
7901;SDS011;3996;49.674;10.716;2022-12-18T07:43:27;36.63;;;16.17;;
7901;SDS011;3996;49.674;10.716;2022-12-18T07:45:52;33.13;;;15.70;;
7901;SDS011;3996;49.674;10.716;2022-12-18T07:48:18;35.03;;;15.77;;
7901;SDS011;3996;49.674;10.716;2022-12-18T07:50:44;32.60;;;16.07;;
7901;SDS011;3996;49.674;10.716;2022-12-18T07:53:09;32.03;;;14.97;;
7901;SDS011;3996;49.674;10.716;2022-12-18T07:55:35;32.13;;;15.37;;
7901;SDS011;3996;49.674;10.716;2022-12-18T07:58:01;33.57;;;13.90;;
7901;SDS011;3996;49.674;10.716;2022-12-18T08:00:27;36.93;;;14.97;;
7901;SDS011;3996;49.674;10.716;2022-12-18T08:02:53;29.13;;;14.30;;
7901;SDS011;3996;49.674;10.716;2022-12-18T08:05:19;36.90;;;15.67;;
7901;SDS011;3996;49.674;10.716;2022-12-18T08:07:45;36.37;;;14.97;;
7901;SDS011;3996;49.674;10.716;2022-12-18T08:10:11;36.33;;;15.70;;
7901;SDS011;3996;49.674;10.716;2022-12-18T08:12:37;31.03;;;14.60;;
7901;SDS011;3996;49.674;10.716;2022-12-18T08:15:03;31.40;;;14.83;;
7901;SDS011;3996;49.674;10.716;2022-12-18T08:17:28;33.43;;;14.93;;
7901;SDS011;3996;49.674;10.716;2022-12-18T08:19:54;31.43;;;14.33;;
7901;SDS011;3996;49.674;10.716;2022-12-18T08:22:20;33.17;;;15.87;;
7901;SDS011;3996;49.674;10.716;2022-12-18T08:24:45;35.53;;;16.20;;
7901;SDS011;3996;49.674;10.716;2022-12-18T08:27:11;35.83;;;15.43;;
7901;SDS011;3996;49.674;10.716;2022-12-18T08:29:36;37.40;;;15.73;;
7901;SDS011;3996;49.674;10.716;2022-12-18T08:32:03;36.70;;;15.00;;
7901;SDS011;3996;49.674;10.716;2022-12-18T08:34:29;32.33;;;15.07;;
7901;SDS011;3996;49.674;10.716;2022-12-18T08:36:54;31.93;;;14.20;;
7901;SDS011;3996;49.674;10.716;2022-12-18T08:39:20;28.97;;;14.40;;
7901;SDS011;3996;49.674;10.716;2022-12-18T08:41:45;33.37;;;14.37;;
7901;SDS011;3996;49.674;10.716;2022-12-18T08:44:31;30.90;;;14.30;;
7901;SDS011;3996;49.674;10.716;2022-12-18T08:47:03;30.93;;;13.83;;
7901;SDS011;3996;49.674;10.716;2022-12-18T08:49:30;26.17;;;14.07;;
7901;SDS011;3996;49.674;10.716;2022-12-18T08:51:55;31.17;;;13.93;;
7901;SDS011;3996;49.674;10.716;2022-12-18T08:54:25;29.63;;;14.20;;
7901;SDS011;3996;49.674;10.716;2022-12-18T08:56:51;30.70;;;14.47;;
7901;SDS011;3996;49.674;10.716;2022-12-18T08:59:17;27.63;;;14.07;;
7901;SDS011;3996;49.674;10.716;2022-12-18T09:01:43;26.40;;;13.30;;
7901;SDS011;3996;49.674;10.716;2022-12-18T09:04:09;30.43;;;14.33;;
7901;SDS011;3996;49.674;10.716;2022-12-18T09:06:35;32.43;;;14.67;;
7901;SDS011;3996;49.674;10.716;2022-12-18T09:09:00;27.30;;;12.93;;
7901;SDS011;3996;49.674;10.716;2022-12-18T09:11:26;26.80;;;13.50;;
7901;SDS011;3996;49.674;10.716;2022-12-18T09:13:53;31.77;;;15.60;;
7901;SDS011;3996;49.674;10.716;2022-12-18T09:16:19;31.83;;;15.23;;
7901;SDS011;3996;49.674;10.716;2022-12-18T09:18:46;33.90;;;15.40;;
7901;SDS011;3996;49.674;10.716;2022-12-18T09:21:13;29.67;;;13.80;;
7901;SDS011;3996;49.674;10.716;2022-12-18T09:23:44;29.40;;;14.33;;
7901;SDS011;3996;49.674;10.716;2022-12-18T09:26:14;29.03;;;15.23;;
7901;SDS011;3996;49.674;10.716;2022-12-18T09:28:39;29.43;;;14.80;;
7901;SDS011;3996;49.674;10.716;2022-12-18T09:31:06;31.80;;;15.63;;
7901;SDS011;3996;49.674;10.716;2022-12-18T09:33:33;37.07;;;16.77;;
7901;SDS011;3996;49.674;10.716;2022-12-18T09:36:01;35.50;;;15.97;;
7901;SDS011;3996;49.674;10.716;2022-12-18T09:38:28;38.93;;;17.73;;
7901;SDS011;3996;49.674;10.716;2022-12-18T09:40:54;35.60;;;15.67;;
7901;SDS011;3996;49.674;10.716;2022-12-18T09:43:43;32.43;;;15.37;;
7901;SDS011;3996;49.674;10.716;2022-12-18T09:46:29;35.97;;;14.87;;
7901;SDS011;3996;49.674;10.716;2022-12-18T09:48:58;29.30;;;14.50;;
7901;SDS011;3996;49.674;10.716;2022-12-18T09:51:36;31.50;;;15.37;;
7901;SDS011;3996;49.674;10.716;2022-12-18T09:54:14;32.53;;;15.60;;
7901;SDS011;3996;49.674;10.716;2022-12-18T09:56:47;30.20;;;14.60;;
7901;SDS011;3996;49.674;10.716;2022-12-18T09:59:21;31.50;;;14.60;;
7901;SDS011;3996;49.674;10.716;2022-12-18T10:01:50;28.03;;;13.53;;
7901;SDS011;3996;49.674;10.716;2022-12-18T10:04:16;35.20;;;16.37;;
7901;SDS011;3996;49.674;10.716;2022-12-18T10:06:46;35.33;;;15.57;;
7901;SDS011;3996;49.674;10.716;2022-12-18T10:15:15;30.67;;;14.57;;
7901;SDS011;3996;49.674;10.716;2022-12-18T10:18:18;34.93;;;16.37;;
7901;SDS011;3996;49.674;10.716;2022-12-18T10:20:51;40.83;;;15.37;;
7901;SDS011;3996;49.674;10.716;2022-12-18T10:23:25;32.37;;;14.83;;
7901;SDS011;3996;49.674;10.716;2022-12-18T10:28:21;33.83;;;15.87;;
7901;SDS011;3996;49.674;10.716;2022-12-18T10:30:49;35.83;;;16.07;;
7901;SDS011;3996;49.674;10.716;2022-12-18T10:33:16;40.93;;;15.47;;
7901;SDS011;3996;49.674;10.716;2022-12-18T10:35:43;38.00;;;16.10;;
7901;SDS011;3996;49.674;10.716;2022-12-18T10:40:50;36.17;;;17.03;;
7901;SDS011;3996;49.674;10.716;2022-12-18T10:43:28;37.70;;;16.17;;
7901;SDS011;3996;49.674;10.716;2022-12-18T10:48:31;39.07;;;15.70;;
7901;SDS011;3996;49.674;10.716;2022-12-18T10:50:58;38.33;;;16.50;;
7901;SDS011;3996;49.674;10.716;2022-12-18T10:53:25;31.73;;;14.67;;
7901;SDS011;3996;49.674;10.716;2022-12-18T10:55:53;37.00;;;15.93;;
7901;SDS011;3996;49.674;10.716;2022-12-18T10:58:22;37.13;;;16.70;;
7901;SDS011;3996;49.674;10.716;2022-12-18T11:01:10;42.73;;;17.40;;
7901;SDS011;3996;49.674;10.716;2022-12-18T11:06:05;31.17;;;14.73;;
7901;SDS011;3996;49.674;10.716;2022-12-18T11:08:37;31.83;;;14.97;;
7901;SDS011;3996;49.674;10.716;2022-12-18T11:11:04;32.03;;;14.70;;
7901;SDS011;3996;49.674;10.716;2022-12-18T11:13:39;34.83;;;14.07;;
7901;SDS011;3996;49.674;10.716;2022-12-18T11:16:05;31.93;;;14.73;;
7901;SDS011;3996;49.674;10.716;2022-12-18T11:18:34;31.87;;;14.83;;
7901;SDS011;3996;49.674;10.716;2022-12-18T11:23:34;32.40;;;15.50;;
7901;SDS011;3996;49.674;10.716;2022-12-18T11:26:02;29.37;;;13.03;;
7901;SDS011;3996;49.674;10.716;2022-12-18T11:28:39;28.13;;;13.53;;
7901;SDS011;3996;49.674;10.716;2022-12-18T11:31:21;29.60;;;14.07;;
7901;SDS011;3996;49.674;10.716;2022-12-18T11:34:00;26.87;;;12.50;;
7901;SDS011;3996;49.674;10.716;2022-12-18T11:36:39;28.30;;;13.70;;
7901;SDS011;3996;49.674;10.716;2022-12-18T11:39:11;36.10;;;16.67;;
7901;SDS011;3996;49.674;10.716;2022-12-18T11:41:53;26.13;;;12.40;;
7901;SDS011;3996;49.674;10.716;2022-12-18T11:44:45;28.67;;;13.83;;
7901;SDS011;3996;49.674;10.716;2022-12-18T11:50:11;27.50;;;13.40;;
7901;SDS011;3996;49.674;10.716;2022-12-18T11:52:40;32.30;;;13.60;;
7901;SDS011;3996;49.674;10.716;2022-12-18T11:55:13;28.47;;;12.83;;
7901;SDS011;3996;49.674;10.716;2022-12-18T12:00:20;27.93;;;12.40;;
7901;SDS011;3996;49.674;10.716;2022-12-18T12:02:57;26.53;;;12.60;;
7901;SDS011;3996;49.674;10.716;2022-12-18T12:16:54;28.20;;;13.00;;
7901;SDS011;3996;49.674;10.716;2022-12-18T12:22:18;29.23;;;14.43;;
7901;SDS011;3996;49.674;10.716;2022-12-18T12:33:12;29.27;;;13.90;;
7901;SDS011;3996;49.674;10.716;2022-12-18T12:35:47;25.77;;;12.57;;
7901;SDS011;3996;49.674;10.716;2022-12-18T12:38:22;25.57;;;12.47;;
7901;SDS011;3996;49.674;10.716;2022-12-18T12:41:00;26.73;;;12.40;;
7901;SDS011;3996;49.674;10.716;2022-12-18T12:43:41;25.87;;;12.73;;
7901;SDS011;3996;49.674;10.716;2022-12-18T12:46:10;27.07;;;13.17;;
7901;SDS011;3996;49.674;10.716;2022-12-18T12:48:56;27.60;;;12.97;;
7901;SDS011;3996;49.674;10.716;2022-12-18T12:51:27;29.13;;;14.00;;
7901;SDS011;3996;49.674;10.716;2022-12-18T12:53:57;27.17;;;13.57;;
7901;SDS011;3996;49.674;10.716;2022-12-18T12:56:24;25.03;;;11.97;;
7901;SDS011;3996;49.674;10.716;2022-12-18T12:59:15;26.63;;;12.63;;
7901;SDS011;3996;49.674;10.716;2022-12-18T13:25:51;30.03;;;12.83;;
7901;SDS011;3996;49.674;10.716;2022-12-18T13:31:14;28.87;;;13.93;;
7901;SDS011;3996;49.674;10.716;2022-12-18T13:36:50;30.10;;;13.77;;
7901;SDS011;3996;49.674;10.716;2022-12-18T13:41:43;27.00;;;12.67;;
7901;SDS011;3996;49.674;10.716;2022-12-18T13:46:59;29.50;;;13.83;;
7901;SDS011;3996;49.674;10.716;2022-12-18T13:49:38;29.90;;;13.20;;
7901;SDS011;3996;49.674;10.716;2022-12-18T13:52:23;27.03;;;12.60;;
7901;SDS011;3996;49.674;10.716;2022-12-18T13:54:55;30.33;;;14.00;;
7901;SDS011;3996;49.674;10.716;2022-12-18T13:59:59;22.40;;;11.97;;
7901;SDS011;3996;49.674;10.716;2022-12-18T14:02:49;26.73;;;12.40;;
7901;SDS011;3996;49.674;10.716;2022-12-18T14:08:01;28.43;;;13.33;;
7901;SDS011;3996;49.674;10.716;2022-12-18T14:10:30;26.37;;;12.93;;
7901;SDS011;3996;49.674;10.716;2022-12-18T14:12:57;27.70;;;12.10;;
7901;SDS011;3996;49.674;10.716;2022-12-18T14:17:59;27.07;;;13.00;;
7901;SDS011;3996;49.674;10.716;2022-12-18T14:20:41;26.87;;;12.40;;
7901;SDS011;3996;49.674;10.716;2022-12-18T14:26:23;29.97;;;12.87;;
7901;SDS011;3996;49.674;10.716;2022-12-18T14:28:57;26.53;;;12.80;;
7901;SDS011;3996;49.674;10.716;2022-12-18T14:31:26;28.57;;;13.40;;
7901;SDS011;3996;49.674;10.716;2022-12-18T14:33:54;27.03;;;12.57;;
7901;SDS011;3996;49.674;10.716;2022-12-18T14:36:21;28.93;;;13.77;;
7901;SDS011;3996;49.674;10.716;2022-12-18T14:38:52;29.27;;;13.47;;
7901;SDS011;3996;49.674;10.716;2022-12-18T14:41:20;28.63;;;13.63;;
7901;SDS011;3996;49.674;10.716;2022-12-18T14:43:47;28.90;;;13.23;;
7901;SDS011;3996;49.674;10.716;2022-12-18T14:46:33;31.80;;;14.40;;
7901;SDS011;3996;49.674;10.716;2022-12-18T14:51:59;28.13;;;13.87;;
7901;SDS011;3996;49.674;10.716;2022-12-18T14:54:27;31.53;;;14.30;;
7901;SDS011;3996;49.674;10.716;2022-12-18T14:57:17;31.97;;;14.43;;
7901;SDS011;3996;49.674;10.716;2022-12-18T14:59:46;28.90;;;13.90;;
7901;SDS011;3996;49.674;10.716;2022-12-18T15:02:22;26.53;;;13.53;;
7901;SDS011;3996;49.674;10.716;2022-12-18T15:07:56;29.13;;;14.30;;
7901;SDS011;3996;49.674;10.716;2022-12-18T15:10:24;34.73;;;14.83;;
7901;SDS011;3996;49.674;10.716;2022-12-18T15:18:01;31.97;;;15.17;;
7901;SDS011;3996;49.674;10.716;2022-12-18T15:26:03;28.07;;;14.37;;
7901;SDS011;3996;49.674;10.716;2022-12-18T15:33:35;32.77;;;15.43;;
7901;SDS011;3996;49.674;10.716;2022-12-18T15:36:03;29.63;;;13.67;;
7901;SDS011;3996;49.674;10.716;2022-12-18T15:38:30;26.77;;;14.10;;
7901;SDS011;3996;49.674;10.716;2022-12-18T15:40:57;34.23;;;13.93;;
7901;SDS011;3996;49.674;10.716;2022-12-18T15:43:23;30.17;;;14.63;;
7901;SDS011;3996;49.674;10.716;2022-12-18T15:46:20;34.13;;;15.97;;
7901;SDS011;3996;49.674;10.716;2022-12-18T15:48:49;27.33;;;13.83;;
7901;SDS011;3996;49.674;10.716;2022-12-18T15:53:43;33.13;;;16.27;;
7901;SDS011;3996;49.674;10.716;2022-12-18T15:56:13;33.33;;;16.17;;
7901;SDS011;3996;49.674;10.716;2022-12-18T15:58:57;31.50;;;15.33;;
7901;SDS011;3996;49.674;10.716;2022-12-18T16:01:24;32.23;;;16.40;;
7901;SDS011;3996;49.674;10.716;2022-12-18T16:03:52;28.57;;;14.63;;
7901;SDS011;3996;49.674;10.716;2022-12-18T16:06:18;28.00;;;14.23;;
7901;SDS011;3996;49.674;10.716;2022-12-18T16:08:44;32.13;;;15.30;;
7901;SDS011;3996;49.674;10.716;2022-12-18T16:14:12;29.40;;;15.20;;
7901;SDS011;3996;49.674;10.716;2022-12-18T16:16:44;32.27;;;16.13;;
7901;SDS011;3996;49.674;10.716;2022-12-18T16:19:11;31.57;;;15.63;;
7901;SDS011;3996;49.674;10.716;2022-12-18T16:21:37;30.03;;;14.17;;
7901;SDS011;3996;49.674;10.716;2022-12-18T16:24:02;27.47;;;14.07;;
7901;SDS011;3996;49.674;10.716;2022-12-18T16:26:28;28.67;;;14.30;;
7901;SDS011;3996;49.674;10.716;2022-12-18T16:28:54;32.07;;;17.50;;
7901;SDS011;3996;49.674;10.716;2022-12-18T16:31:19;29.50;;;14.90;;
7901;SDS011;3996;49.674;10.716;2022-12-18T16:33:45;30.53;;;14.43;;
7901;SDS011;3996;49.674;10.716;2022-12-18T16:36:11;25.70;;;13.83;;
7901;SDS011;3996;49.674;10.716;2022-12-18T16:38:37;29.00;;;15.63;;
7901;SDS011;3996;49.674;10.716;2022-12-18T16:41:05;29.97;;;14.70;;
7901;SDS011;3996;49.674;10.716;2022-12-18T16:43:58;26.83;;;14.47;;
7901;SDS011;3996;49.674;10.716;2022-12-18T16:46:24;23.90;;;12.00;;
7901;SDS011;3996;49.674;10.716;2022-12-18T16:48:50;26.97;;;13.20;;
7901;SDS011;3996;49.674;10.716;2022-12-18T16:51:16;25.63;;;13.03;;
7901;SDS011;3996;49.674;10.716;2022-12-18T16:53:41;28.60;;;15.30;;
7901;SDS011;3996;49.674;10.716;2022-12-18T16:56:07;35.63;;;15.60;;
7901;SDS011;3996;49.674;10.716;2022-12-18T16:58:32;27.37;;;14.97;;
7901;SDS011;3996;49.674;10.716;2022-12-18T17:00:58;26.03;;;15.10;;
7901;SDS011;3996;49.674;10.716;2022-12-18T17:03:24;28.10;;;13.13;;
7901;SDS011;3996;49.674;10.716;2022-12-18T17:05:49;28.77;;;14.57;;
7901;SDS011;3996;49.674;10.716;2022-12-18T17:08:16;27.40;;;13.87;;
7901;SDS011;3996;49.674;10.716;2022-12-18T17:10:41;27.73;;;14.23;;
7901;SDS011;3996;49.674;10.716;2022-12-18T17:13:08;30.07;;;15.37;;